createdAt,value
2022-11-28T00:02:02.801Z,93213.94
2022-11-28T00:04:32.300Z,93214.69
2022-11-28T00:07:02.166Z,93211.06
2022-11-28T00:09:31.728Z,93219.09
2022-11-28T00:12:02.653Z,93214.16
2022-11-28T00:14:32.182Z,93217.72
2022-11-28T00:17:01.790Z,93215.50
2022-11-28T00:19:31.149Z,93215.91
2022-11-28T00:22:00.620Z,93212.69
2022-11-28T00:24:30.100Z,93217.00
2022-11-28T00:26:59.532Z,93207.41
2022-11-28T00:29:30.529Z,93210.84
2022-11-28T00:31:59.978Z,93206.59
2022-11-28T00:34:29.498Z,93209.00
2022-11-28T00:36:59.085Z,93198.53
2022-11-28T00:39:28.416Z,93198.41
2022-11-28T00:41:57.891Z,93199.13
2022-11-28T00:44:28.810Z,93201.72
2022-11-28T00:46:58.318Z,93194.03
2022-11-28T00:51:10.366Z,93187.19
2022-11-28T00:53:42.732Z,93186.31
2022-11-28T00:56:14.650Z,93179.34
2022-11-28T00:58:45.285Z,93179.47
2022-11-28T01:01:18.270Z,93188.16
2022-11-28T01:03:48.995Z,93177.03
2022-11-28T01:06:26.761Z,93177.91
2022-11-28T01:08:57.180Z,93175.41
2022-11-28T01:11:26.862Z,93171.00
2022-11-28T01:13:57.714Z,93172.63
2022-11-28T01:16:27.545Z,93165.00
2022-11-28T01:18:57.440Z,93163.25
2022-11-28T01:21:29.272Z,93162.38
2022-11-28T01:23:58.791Z,93160.75
2022-11-28T01:26:31.751Z,93164.25
2022-11-28T01:29:03.072Z,93156.50
2022-11-28T01:31:33.168Z,93157.59
2022-11-28T01:34:02.860Z,93154.16
2022-11-28T01:36:34.449Z,93142.19
2022-11-28T01:39:04.033Z,93151.59
2022-11-28T01:45:03.780Z,93148.97
2022-11-28T01:47:34.611Z,93138.88
2022-11-28T01:50:07.266Z,93140.78
2022-11-28T01:52:40.318Z,93138.19
2022-11-28T01:55:12.706Z,93141.47
2022-11-28T01:57:42.558Z,93141.22
2022-11-28T02:00:15.710Z,93139.41
2022-11-28T02:02:49.467Z,93135.97
2022-11-28T02:05:24.072Z,93134.22
2022-11-28T02:07:55.444Z,93133.50
2022-11-28T02:10:29.026Z,93136.56
2022-11-28T02:13:29.955Z,93137.00
2022-11-28T02:16:33.955Z,93126.03
2022-11-28T02:19:41.122Z,93131.84
2022-11-28T02:22:16.570Z,93131.84
2022-11-28T02:25:27.738Z,93131.84
2022-11-28T02:28:32.830Z,93130.03
2022-11-28T02:31:18.178Z,93123.03
2022-11-28T02:33:54.270Z,93129.78
2022-11-28T02:36:33.416Z,93116.06
2022-11-28T02:39:15.338Z,93112.72
2022-11-28T02:41:52.232Z,93117.03
2022-11-28T02:44:26.312Z,93110.19
2022-11-28T02:47:04.290Z,93130.13
2022-11-28T02:49:40.303Z,93118.28
2022-11-28T02:52:14.009Z,93116.72
2022-11-28T02:54:45.886Z,93123.63
2022-11-28T02:57:15.295Z,93119.31
2022-11-28T02:59:52.192Z,93120.28
2022-11-28T03:02:29.439Z,93116.03
2022-11-28T03:05:12.626Z,93121.22
2022-11-28T03:07:55.055Z,93114.47
2022-11-28T03:10:33.010Z,93108.53
2022-11-28T03:13:20.218Z,93110.28
2022-11-28T03:16:01.819Z,93114.66
2022-11-28T03:18:37.834Z,93110.34
2022-11-28T03:21:17.163Z,93118.06
2022-11-28T03:23:52.726Z,93108.66
2022-11-28T03:26:31.021Z,93119.84
2022-11-28T03:29:13.318Z,93114.13
2022-11-28T03:31:48.777Z,93114.22
2022-11-28T03:34:22.550Z,93121.16
2022-11-28T03:36:59.824Z,93115.25
2022-11-28T03:39:36.913Z,93118.66
2022-11-28T03:42:13.012Z,93116.97
2022-11-28T03:44:49.870Z,93105.88
2022-11-28T03:47:19.418Z,93114.53
2022-11-28T03:52:07.248Z,93116.09
2022-11-28T03:54:42.005Z,93106.69
2022-11-28T03:57:16.974Z,93113.56
2022-11-28T03:59:49.590Z,93110.03
2022-11-28T04:02:27.521Z,93116.09
2022-11-28T04:05:05.350Z,93116.97
2022-11-28T04:07:43.335Z,93110.03
2022-11-28T04:10:21.286Z,93115.19
2022-11-28T04:12:58.726Z,93111.00
2022-11-28T04:15:38.521Z,93113.63
2022-11-28T04:18:21.024Z,93118.84
2022-11-28T04:20:55.196Z,93115.34
2022-11-28T04:23:28.642Z,93122.31
2022-11-28T04:26:05.415Z,93126.56
2022-11-28T04:28:37.291Z,93121.34
2022-11-28T04:31:09.776Z,93126.50
2022-11-28T04:33:45.522Z,93124.72
2022-11-28T04:36:19.877Z,93126.19
2022-11-28T04:38:56.729Z,93125.44
2022-11-28T04:41:30.206Z,93126.56
2022-11-28T04:44:06.884Z,93130.94
2022-11-28T04:46:43.597Z,93123.50
2022-11-28T04:49:14.113Z,93119.13
2022-11-28T04:51:52.105Z,93117.69
2022-11-28T04:54:33.128Z,93114.03
2022-11-28T04:57:10.347Z,93122.94
2022-11-28T04:59:42.138Z,93122.63
2022-11-28T05:02:14.071Z,93121.66
2022-11-28T05:04:45.970Z,93120.75
2022-11-28T05:07:15.787Z,93125.63
2022-11-28T05:09:46.751Z,93120.44
2022-11-28T05:12:16.312Z,93123.19
2022-11-28T05:14:45.912Z,93124.88
2022-11-28T05:17:15.964Z,93121.31
2022-11-28T05:19:45.409Z,93124.97
2022-11-28T05:22:14.750Z,93119.88
2022-11-28T05:24:45.897Z,93119.06
2022-11-28T05:27:15.673Z,93126.88
2022-11-28T05:29:51.903Z,93123.34
2022-11-28T05:32:21.680Z,93127.81
2022-11-28T05:34:51.060Z,93131.56
2022-11-28T05:37:20.485Z,93130.63
2022-11-28T05:39:51.324Z,93129.00
2022-11-28T05:42:20.821Z,93131.56
2022-11-28T05:44:50.668Z,93126.56
2022-11-28T05:47:20.116Z,93115.38
2022-11-28T05:49:50.150Z,93126.31
2022-11-28T05:52:19.619Z,93128.91
2022-11-28T05:54:50.419Z,93125.53
2022-11-28T05:57:21.132Z,93114.41
2022-11-28T05:59:50.486Z,93126.38
2022-11-28T06:02:20.002Z,93128.91
2022-11-28T06:04:49.496Z,93124.50
2022-11-28T06:07:20.188Z,93124.59
2022-11-28T06:09:50.967Z,93126.16
2022-11-28T06:12:20.555Z,93120.75
2022-11-28T06:14:49.839Z,93121.78
2022-11-28T06:17:19.325Z,93132.03
2022-11-28T06:19:48.854Z,93126.78
2022-11-28T06:22:18.380Z,93119.88
2022-11-28T06:24:49.425Z,93122.41
2022-11-28T06:27:18.900Z,93121.38
2022-11-28T06:29:48.292Z,93118.97
2022-11-28T06:32:21.914Z,93122.28
2022-11-28T06:34:51.816Z,93111.75
2022-11-28T06:37:21.410Z,93118.63
2022-11-28T06:39:52.626Z,93116.00
2022-11-28T06:42:22.231Z,93116.91
2022-11-28T06:44:51.712Z,93115.16
2022-11-28T06:47:21.146Z,93120.13
2022-11-28T06:52:02.938Z,93118.47
2022-11-28T06:54:32.710Z,93125.41
2022-11-28T06:57:02.237Z,93119.28
2022-11-28T06:59:32.188Z,93119.28
2022-11-28T07:02:07.196Z,93110.63
2022-11-28T07:04:37.708Z,93109.84
2022-11-28T07:07:10.680Z,93116.69
2022-11-28T07:09:43.939Z,93112.13
2022-11-28T07:12:13.684Z,93110.19
2022-11-28T07:14:42.963Z,93107.03
2022-11-28T07:17:12.273Z,93110.38
2022-11-28T07:19:41.927Z,93108.59
2022-11-28T07:22:14.046Z,93114.53
2022-11-28T07:24:43.633Z,93106.88
2022-11-28T07:27:13.003Z,93110.34
2022-11-28T07:29:42.930Z,93103.28
2022-11-28T07:32:12.906Z,93105.66
2022-11-28T07:34:44.621Z,93105.56
2022-11-28T07:37:18.543Z,93101.94
2022-11-28T07:39:48.008Z,93107.03
2022-11-28T07:42:18.679Z,93109.56
2022-11-28T07:44:49.293Z,93105.97
2022-11-28T07:47:18.623Z,93107.28
2022-11-28T07:49:48.222Z,93100.31
2022-11-28T07:52:19.000Z,93102.00
2022-11-28T07:54:50.107Z,93097.56
2022-11-28T07:57:20.275Z,93096.91
2022-11-28T07:59:50.329Z,93101.69
2022-11-28T08:02:19.762Z,93102.13
2022-11-28T08:04:53.970Z,93093.59
2022-11-28T08:07:26.252Z,93095.94
2022-11-28T08:09:55.872Z,93089.13
2022-11-28T08:12:25.339Z,93094.78
2022-11-28T08:14:54.745Z,93096.09
2022-11-28T08:17:24.230Z,93096.88
2022-11-28T08:19:53.708Z,93094.41
2022-11-28T08:22:24.413Z,93091.53
2022-11-28T08:24:53.979Z,93100.50
2022-11-28T08:27:23.510Z,93088.38
2022-11-28T08:29:53.953Z,93085.69
2022-11-28T08:32:23.733Z,93089.69
2022-11-28T08:34:53.222Z,93083.88
2022-11-28T08:37:22.551Z,93085.50
2022-11-28T08:39:53.430Z,93078.91
2022-11-28T08:42:23.569Z,93078.28
2022-11-28T08:44:53.150Z,93079.09
2022-11-28T08:47:22.591Z,93077.13
2022-11-28T08:49:51.973Z,93077.84
2022-11-28T08:52:22.384Z,93071.81
2022-11-28T08:54:53.190Z,93065.78
2022-11-28T08:57:22.747Z,93062.88
2022-11-28T08:59:52.272Z,93062.41
2022-11-28T09:02:25.814Z,93062.47
2022-11-28T09:04:55.714Z,93057.72
2022-11-28T09:07:25.211Z,93050.16
2022-11-28T09:09:57.331Z,93060.94
2022-11-28T09:12:26.824Z,93053.00
2022-11-28T09:14:56.337Z,93047.44
2022-11-28T09:17:25.913Z,93043.75
2022-11-28T09:19:55.330Z,93041.75
2022-11-28T09:22:24.717Z,93040.63
2022-11-28T09:24:55.590Z,93033.75
2022-11-28T09:27:25.066Z,93040.34
2022-11-28T09:29:54.499Z,93033.31
2022-11-28T09:32:23.962Z,93035.81
2022-11-28T09:34:53.370Z,93028.00
2022-11-28T09:37:22.910Z,93028.16
2022-11-28T09:40:12.268Z,93025.44
2022-11-28T09:42:45.982Z,93027.16
2022-11-28T09:45:19.936Z,93026.28
2022-11-28T09:47:53.384Z,93015.13
2022-11-28T09:52:08.214Z,93019.06
2022-11-28T09:54:48.979Z,93024.31
2022-11-28T09:57:26.549Z,93014.75
2022-11-28T09:59:57.593Z,93022.41
2022-11-28T10:02:36.431Z,93016.06
2022-11-28T10:05:19.151Z,93008.97
2022-11-28T10:08:06.762Z,93004.34
2022-11-28T10:10:50.600Z,93003.78
2022-11-28T10:13:41.237Z,93011.53
2022-11-28T10:16:25.676Z,93005.13
2022-11-28T10:19:02.331Z,93001.25
2022-11-28T10:21:39.755Z,92997.19
2022-11-28T10:24:17.100Z,92995.22
2022-11-28T10:26:51.942Z,93003.22
2022-11-28T10:29:30.884Z,92990.31
2022-11-28T10:32:03.850Z,92983.28
2022-11-28T10:34:38.040Z,92988.72
2022-11-28T10:37:12.399Z,92984.31
2022-11-28T10:39:46.931Z,92980.47
2022-11-28T10:42:28.216Z,92974.38
2022-11-28T10:45:18.230Z,92974.44
2022-11-28T10:48:29.884Z,92967.72
2022-11-28T10:51:09.699Z,92966.22
2022-11-28T10:53:53.239Z,92968.50
2022-11-28T10:56:36.071Z,92969.78
2022-11-28T10:59:20.123Z,92972.13
2022-11-28T11:01:51.627Z,92960.44
2022-11-28T11:04:26.902Z,92961.50
2022-11-28T11:07:16.173Z,92960.56
2022-11-28T11:09:47.958Z,92958.81
2022-11-28T11:12:25.512Z,92950.19
2022-11-28T11:14:55.491Z,92951.88
2022-11-28T11:17:36.632Z,92952.47
2022-11-28T11:20:34.993Z,92943.19
2022-11-28T11:23:16.605Z,92952.84
2022-11-28T11:25:56.450Z,92942.66
2022-11-28T11:28:47.028Z,92948.31
2022-11-28T11:31:25.555Z,92952.28
2022-11-28T11:34:04.010Z,92947.19
2022-11-28T11:36:37.974Z,92948.44
2022-11-28T11:39:25.629Z,92943.47
2022-11-28T11:42:13.739Z,92935.41
2022-11-28T11:44:44.651Z,92932.13
2022-11-28T11:47:14.060Z,92939.03
2022-11-28T11:49:46.625Z,92934.78
2022-11-28T11:52:23.677Z,92934.91
2022-11-28T11:55:01.527Z,92936.53
2022-11-28T11:57:37.228Z,92940.50
2022-11-28T12:00:16.547Z,92936.56
2022-11-28T12:02:51.569Z,92940.91
2022-11-28T12:05:25.326Z,92929.75
2022-11-28T12:08:01.606Z,92930.72
2022-11-28T12:10:37.858Z,92932.75
2022-11-28T12:13:07.449Z,92928.72
2022-11-28T12:15:48.614Z,92925.22
2022-11-28T12:18:34.243Z,92934.78
2022-11-28T12:21:14.764Z,92941.28
2022-11-28T12:24:08.795Z,92942.03
2022-11-28T12:26:46.952Z,92934.41
2022-11-28T12:29:48.773Z,92930.03
2022-11-28T12:32:40.370Z,92922.22
2022-11-28T12:35:28.596Z,92915.53
2022-11-28T12:38:11.344Z,92918.28
2022-11-28T12:40:58.300Z,92920.56
2022-11-28T12:43:43.754Z,92927.34
2022-11-28T12:46:24.996Z,92931.72
2022-11-28T12:52:20.985Z,92928.50
2022-11-28T12:55:13.843Z,92936.53
2022-11-28T12:57:53.232Z,92937.16
2022-11-28T13:00:25.608Z,92938.19
2022-11-28T13:03:17.320Z,92944.44
2022-11-28T13:06:05.191Z,92946.88
2022-11-28T13:09:02.493Z,92941.53
2022-11-28T13:11:51.208Z,92942.44
2022-11-28T13:14:35.118Z,92945.16
2022-11-28T13:17:20.326Z,92949.25
2022-11-28T13:19:56.787Z,92956.44
2022-11-28T13:22:29.712Z,92962.97
2022-11-28T13:25:08.808Z,92964.59
2022-11-28T13:27:49.767Z,92964.09
2022-11-28T13:30:23.939Z,92967.19
2022-11-28T13:33:03.120Z,92958.22
2022-11-28T13:35:33.247Z,92954.63
2022-11-28T13:41:35.189Z,92958.75
2022-11-28T13:44:09.521Z,92956.44
2022-11-28T13:46:39.046Z,92957.78
2022-11-28T13:49:20.812Z,92953.47
2022-11-28T13:51:50.933Z,92942.34
2022-11-28T13:54:52.803Z,92944.31
2022-11-28T13:57:33.235Z,92936.84
2022-11-28T14:00:08.591Z,92933.50
2022-11-28T14:02:46.855Z,92938.66
2022-11-28T14:05:36.840Z,92944.66
2022-11-28T14:08:08.546Z,92949.81
2022-11-28T14:11:13.971Z,92948.06
2022-11-28T14:14:17.741Z,92935.50
2022-11-28T14:17:04.983Z,92942.59
2022-11-28T14:19:57.364Z,92945.16
2022-11-28T14:22:42.613Z,92939.69
2022-11-28T14:25:19.341Z,92938.25
2022-11-28T14:27:55.191Z,92936.31
2022-11-28T14:30:34.051Z,92928.56
2022-11-28T14:33:08.393Z,92928.66
2022-11-28T14:36:26.231Z,92936.31
2022-11-28T14:39:33.891Z,92936.31
2022-11-28T14:42:59.600Z,92937.16
2022-11-28T14:45:46.059Z,92936.13
2022-11-28T14:48:31.998Z,92945.59
2022-11-28T14:51:02.662Z,92941.16
2022-11-28T14:53:47.521Z,92939.53
2022-11-28T14:56:30.542Z,92934.66
2022-11-28T14:59:03.686Z,92933.50
2022-11-28T15:01:50.764Z,92928.41
2022-11-28T15:04:50.249Z,92927.03
2022-11-28T15:07:33.296Z,92923.59
2022-11-28T15:10:09.073Z,92931.31
2022-11-28T15:12:52.339Z,92933.19
2022-11-28T15:15:22.893Z,92935.56
2022-11-28T15:17:56.880Z,92935.44
2022-11-28T15:20:31.511Z,92923.41
2022-11-28T15:23:00.924Z,92922.41
2022-11-28T15:25:35.818Z,92922.63
2022-11-28T15:28:17.033Z,92921.97
2022-11-28T15:30:49.290Z,92926.22
2022-11-28T15:33:20.487Z,92927.00
2022-11-28T15:36:02.345Z,92922.69
2022-11-28T15:38:34.112Z,92920.22
2022-11-28T15:41:03.524Z,92925.44
2022-11-28T15:43:33.445Z,92927.00
2022-11-28T15:46:04.251Z,92931.31
2022-11-28T15:52:05.578Z,92925.38
2022-11-28T15:54:43.774Z,92936.50
2022-11-28T15:57:25.420Z,92931.44
2022-11-28T15:59:55.784Z,92927.94
2022-11-28T16:02:32.541Z,92933.91
2022-11-28T16:05:09.012Z,92939.16
2022-11-28T16:07:45.308Z,92932.19
2022-11-28T16:10:25.364Z,92937.31
2022-11-28T16:13:02.667Z,92940.72
2022-11-28T16:15:33.467Z,92940.06
2022-11-28T16:18:03.053Z,92937.69
2022-11-28T16:20:38.136Z,92941.19
2022-11-28T16:23:16.333Z,92940.28
2022-11-28T16:25:47.291Z,92930.00
2022-11-28T16:28:36.066Z,92927.50
2022-11-28T16:31:13.541Z,92928.34
2022-11-28T16:33:45.078Z,92928.22
2022-11-28T16:36:23.307Z,92925.75
2022-11-28T16:39:06.781Z,92933.47
2022-11-28T16:41:36.958Z,92923.25
2022-11-28T16:44:11.519Z,92921.44
2022-11-28T16:46:50.258Z,92928.41
2022-11-28T16:49:36.639Z,92921.56
2022-11-28T16:52:54.119Z,92921.53
2022-11-28T16:55:46.618Z,92915.59
2022-11-28T16:58:24.025Z,92917.41
2022-11-28T17:01:04.671Z,92919.97
2022-11-28T17:03:58.233Z,92928.44
2022-11-28T17:06:34.207Z,92924.41
2022-11-28T17:09:04.861Z,92914.03
2022-11-28T17:11:38.910Z,92919.44
2022-11-28T17:14:13.209Z,92927.03
2022-11-28T17:16:43.993Z,92922.59
2022-11-28T17:19:13.681Z,92926.03
2022-11-28T17:21:46.215Z,92931.09
2022-11-28T17:24:20.483Z,92927.56
2022-11-28T17:26:52.526Z,92925.84
2022-11-28T17:29:22.975Z,92922.47
2022-11-28T17:31:55.427Z,92930.25
2022-11-28T17:34:27.044Z,92921.72
2022-11-28T17:36:56.549Z,92926.03
2022-11-28T17:39:27.683Z,92927.81
2022-11-28T17:41:59.468Z,92915.88
2022-11-28T17:44:31.989Z,92919.63
2022-11-28T17:47:03.406Z,92917.81
2022-11-28T17:49:33.433Z,92923.09
2022-11-28T17:52:02.902Z,92924.78
2022-11-28T17:54:32.269Z,92924.66
2022-11-28T17:57:03.083Z,92920.34
2022-11-28T17:59:34.532Z,92906.66
2022-11-28T18:02:04.190Z,92916.16
2022-11-28T18:04:33.572Z,92911.91
2022-11-28T18:07:03.059Z,92917.09
2022-11-28T18:09:32.469Z,92904.22
2022-11-28T18:12:03.306Z,92906.75
2022-11-28T18:14:38.113Z,92910.09
2022-11-28T18:17:09.092Z,92915.25
2022-11-28T18:19:38.414Z,92909.13
2022-11-28T18:22:08.910Z,92908.31
2022-11-28T18:24:38.345Z,92906.50
2022-11-28T18:27:09.277Z,92899.59
2022-11-28T18:29:39.390Z,92898.72
2022-11-28T18:32:08.996Z,92900.59
2022-11-28T18:34:38.343Z,92901.34
2022-11-28T18:37:07.832Z,92898.78
2022-11-28T18:39:37.537Z,92899.69
2022-11-28T18:42:08.381Z,92901.59
2022-11-28T18:44:37.843Z,92909.34
2022-11-28T18:47:07.420Z,92904.81
2022-11-28T18:52:03.162Z,92893.63
2022-11-28T18:54:33.334Z,92892.88
2022-11-28T18:57:03.007Z,92892.78
2022-11-28T18:59:32.492Z,92884.16
2022-11-28T19:02:02.033Z,92875.63
2022-11-28T19:04:31.568Z,92884.31
2022-11-28T19:07:04.167Z,92886.88
2022-11-28T19:09:33.671Z,92878.19
2022-11-28T19:12:03.167Z,92880.72
2022-11-28T19:14:32.873Z,92885.97
2022-11-28T19:17:03.025Z,92881.66
2022-11-28T19:19:33.309Z,92891.06
2022-11-28T19:22:04.187Z,92883.53
2022-11-28T19:24:33.692Z,92892.78
2022-11-28T19:27:03.167Z,92891.06
2022-11-28T19:29:32.809Z,92895.19
2022-11-28T19:32:02.148Z,92896.28
2022-11-28T19:34:31.559Z,92891.25
2022-11-28T19:37:02.428Z,92900.59
2022-11-28T19:39:31.888Z,92896.28
2022-11-28T19:42:01.481Z,92897.00
2022-11-28T19:44:31.073Z,92892.72
2022-11-28T19:47:01.080Z,92888.44
2022-11-28T19:49:30.692Z,92899.69
2022-11-28T19:52:00.137Z,92895.44
2022-11-28T19:54:30.935Z,92888.56
2022-11-28T19:57:00.468Z,92889.28
2022-11-28T19:59:31.549Z,92881.41
2022-11-28T20:02:02.919Z,92897.72
2022-11-28T20:04:32.405Z,92886.38
2022-11-28T20:07:02.000Z,92893.69
2022-11-28T20:09:33.395Z,92899.75
2022-11-28T20:12:02.891Z,92899.59
2022-11-28T20:14:32.754Z,92908.13
2022-11-28T20:17:02.429Z,92907.28
2022-11-28T20:19:31.981Z,92906.69
2022-11-28T20:22:01.451Z,92900.59
2022-11-28T20:24:32.329Z,92903.81
2022-11-28T20:27:01.659Z,92897.75
2022-11-28T20:29:31.498Z,92901.16
2022-11-28T20:32:00.991Z,92902.13
2022-11-28T20:34:30.693Z,92896.19
2022-11-28T20:37:02.126Z,92897.88
2022-11-28T20:39:33.051Z,92902.00
2022-11-28T20:42:02.452Z,92898.66
2022-11-28T20:44:31.879Z,92894.34
2022-11-28T20:47:01.250Z,92891.53
2022-11-28T20:49:30.604Z,92896.63
2022-11-28T20:52:00.108Z,92900.94
2022-11-28T20:54:29.850Z,92897.56
2022-11-28T20:59:50.841Z,92893.06
2022-11-28T21:02:20.269Z,92893.13
2022-11-28T21:04:49.699Z,92894.03
2022-11-28T21:07:19.549Z,92893.31
2022-11-28T21:09:49.104Z,92892.56
2022-11-28T21:12:21.281Z,92905.28
2022-11-28T21:14:52.242Z,92899.13
2022-11-28T21:17:21.779Z,92898.19
2022-11-28T21:19:51.211Z,92893.06
2022-11-28T21:22:20.564Z,92891.28
2022-11-28T21:24:52.020Z,92895.50
2022-11-28T21:27:22.742Z,92893.91
2022-11-28T21:29:53.492Z,92887.97
2022-11-28T21:32:22.794Z,92888.78
2022-11-28T21:34:53.370Z,92873.38
2022-11-28T21:37:22.674Z,92887.97
2022-11-28T21:39:52.213Z,92880.25
2022-11-28T21:42:23.088Z,92884.47
2022-11-28T21:44:52.503Z,92871.50
2022-11-28T21:47:22.047Z,92877.50
2022-11-28T21:52:02.841Z,92886.84
2022-11-28T21:54:32.084Z,92874.81
2022-11-28T21:57:01.626Z,92877.38
2022-11-28T21:59:30.952Z,92866.09
2022-11-28T22:02:00.543Z,92866.97
2022-11-28T22:04:30.079Z,92869.78
2022-11-28T22:06:59.426Z,92865.59
2022-11-28T22:09:30.432Z,92861.94
2022-11-28T22:11:59.770Z,92862.69
2022-11-28T22:14:36.351Z,92859.25
2022-11-28T22:17:06.183Z,92866.88
2022-11-28T22:19:35.632Z,92859.91
2022-11-28T22:22:05.018Z,92856.47
2022-11-28T22:24:36.131Z,92856.28
2022-11-28T22:27:05.732Z,92858.00
2022-11-28T22:29:35.162Z,92856.28
2022-11-28T22:32:04.743Z,92845.97
2022-11-28T22:34:38.474Z,92839.28
2022-11-28T22:37:09.505Z,92845.25
2022-11-28T22:39:40.512Z,92847.00
2022-11-28T22:42:10.040Z,92837.47
2022-11-28T22:44:39.412Z,92846.84
2022-11-28T22:47:08.856Z,92842.47
2022-11-28T22:49:38.156Z,92842.56
2022-11-28T22:52:07.845Z,92834.97
2022-11-28T22:54:38.788Z,92835.16
2022-11-28T22:57:08.331Z,92829.94
2022-11-28T22:59:38.801Z,92832.59
2022-11-28T23:02:09.997Z,92830.00
2022-11-28T23:04:39.487Z,92827.56
2022-11-28T23:07:08.965Z,92820.75
2022-11-28T23:09:39.995Z,92823.19
2022-11-28T23:12:09.604Z,92829.22
2022-11-28T23:14:39.072Z,92825.69
2022-11-28T23:17:08.706Z,92821.19
2022-11-28T23:19:38.345Z,92817.84
2022-11-28T23:22:07.860Z,92816.16
2022-11-28T23:24:38.656Z,92818.72
2022-11-28T23:27:08.105Z,92818.81
2022-11-28T23:29:37.640Z,92822.22
2022-11-28T23:32:07.680Z,92825.50
2022-11-28T23:34:37.051Z,92817.06
2022-11-28T23:37:06.532Z,92813.56
2022-11-28T23:39:35.981Z,92804.97
2022-11-28T23:42:07.166Z,92809.22
2022-11-28T23:44:36.710Z,92804.16
2022-11-28T23:47:06.770Z,92803.22
2022-11-28T23:49:36.072Z,92802.53
2022-11-28T23:52:05.735Z,92804.19
2022-11-28T23:54:35.209Z,92806.84
2022-11-28T23:57:06.192Z,92797.69
2022-11-28T23:59:35.795Z,92806.22
